La rose des vents
Donnes mto: Semaine 15/01/07 - 21/01/07 (S 3)
Date Horaire Temp. E. Hum. E. P.atmo. Pluie Vent 1mn Direction Ensoleilleme Ev.Tr. Solaire P. de rose Temp au vent Rafales
15/01/2007 00:00 11,1 C 85 % 1028,0 hPa 0,0 l/m 1,6 km/h (1 Bft) N 0,00 h 0,025 mm 0 W/m 8,6 C 11,1 C 3,9 km/h (1 Bft)
15/01/2007 01:00 11,2 C 81 % 1027,8 hPa 0,0 l/m 0,4 km/h (0 Bft) NE 0,00 h 0,025 mm 0 W/m 8,1 C 11,2 C 1,6 km/h (1 Bft)
15/01/2007 02:00 11,3 C 80 % 1027,8 hPa 0,0 l/m 0,4 km/h (0 Bft) NE 0,00 h 0,025 mm 0 W/m 8,0 C 11,3 C 1,8 km/h (1 Bft)
15/01/2007 03:00 11,1 C 81 % 1028,2 hPa 0,0 l/m 2,0 km/h (1 Bft) N-NE 0,00 h 0,025 mm 0 W/m 8,0 C 11,1 C 4,2 km/h (1 Bft)
15/01/2007 04:00 11,1 C 82 % 1028,0 hPa 0,0 l/m 0,6 km/h (0 Bft) N 0,00 h 0,025 mm 0 W/m 8,0 C 11,1 C 1,8 km/h (1 Bft)
15/01/2007 05:00 11,2 C 79 % 1028,0 hPa 0,0 l/m 0,9 km/h (0 Bft) N-NO 0,00 h 0,025 mm 0 W/m 7,8 C 11,2 C 2,7 km/h (1 Bft)
15/01/2007 06:00 10,7 C 81 % 1028,1 hPa 0,0 l/m 1,4 km/h (1 Bft) E-NE 0,00 h 0,025 mm 0 W/m 7,6 C 10,7 C 2,7 km/h (1 Bft)
15/01/2007 07:00 10,6 C 80 % 1028,5 hPa 0,0 l/m 3,6 km/h (1 Bft) NE 0,00 h 0,025 mm 0 W/m 7,3 C 10,6 C 5,4 km/h (1 Bft)
15/01/2007 08:00 10,4 C 79 % 1028,8 hPa 0,0 l/m 2,4 km/h (1 Bft) NE 0,00 h 0,025 mm 16 W/m 7,0 C 10,4 C 4,3 km/h (1 Bft)
15/01/2007 09:00 10,6 C 78 % 1029,4 hPa 0,0 l/m 2,9 km/h (1 Bft) E-NE 0,00 h 0,025 mm 52 W/m 7,0 C 10,6 C 4,8 km/h (1 Bft)
15/01/2007 10:00 11,3 C 78 % 1029,7 hPa 0,0 l/m 2,9 km/h (1 Bft) NE 0,00 h 0,025 mm 114 W/m 7,6 C 11,3 C 5,0 km/h (1 Bft)
15/01/2007 11:00 12,5 C 73 % 1029,5 hPa 0,0 l/m 4,4 km/h (1 Bft) NE 0,05 h 0,076 mm 207 W/m 7,9 C 12,5 C 6,9 km/h (2 Bft)
15/01/2007 12:00 13,5 C 69 % 1029,0 hPa 0,0 l/m 2,5 km/h (1 Bft) E 0,65 h 0,127 mm 249 W/m 7,9 C 13,5 C 4,5 km/h (1 Bft)
15/01/2007 13:00 14,1 C 63 % 1028,3 hPa 0,0 l/m 1,0 km/h (0 Bft) NE 1,00 h 0,127 mm 313 W/m 7,1 C 14,1 C 2,6 km/h (1 Bft)
15/01/2007 14:00 13,7 C 71 % 1027,8 hPa 0,0 l/m 2,8 km/h (1 Bft) E 0,87 h 0,178 mm 244 W/m 8,5 C 13,7 C 6,6 km/h (2 Bft)
15/01/2007 15:00 13,2 C 72 % 1027,8 hPa 0,0 l/m 6,6 km/h (2 Bft) E 0,50 h 0,127 mm 141 W/m 8,3 C 13,2 C 9,5 km/h (2 Bft)
15/01/2007 16:00 11,8 C 77 % 1027,8 hPa 0,0 l/m 5,0 km/h (1 Bft) E-NE 0,00 h 0,102 mm 53 W/m 7,9 C 11,8 C 7,1 km/h (2 Bft)
15/01/2007 17:00 10,9 C 80 % 1027,6 hPa 0,0 l/m 1,7 km/h (1 Bft) E-NE 0,00 h 0,051 mm 9 W/m 7,6 C 10,9 C 3,2 km/h (1 Bft)
15/01/2007 18:00 10,2 C 82 % 1027,9 hPa 0,0 l/m 1,3 km/h (1 Bft) NE 0,00 h 0,000 mm 0 W/m 7,2 C 10,2 C 2,4 km/h (1 Bft)
15/01/2007 19:00 9,6 C 81 % 1028,0 hPa 0,0 l/m 1,5 km/h (1 Bft) N 0,00 h 0,025 mm 0 W/m 6,5 C 9,6 C 3,0 km/h (1 Bft)
15/01/2007 20:00 9,2 C 82 % 1028,0 hPa 0,0 l/m 2,7 km/h (1 Bft) N-NO 0,00 h 0,025 mm 0 W/m 6,3 C 9,2 C 4,4 km/h (1 Bft)
15/01/2007 21:00 8,9 C 82 % 1027,9 hPa 0,0 l/m 2,7 km/h (1 Bft) NO 0,00 h 0,025 mm 0 W/m 5,9 C 8,9 C 4,5 km/h (1 Bft)
15/01/2007 22:00 8,6 C 82 % 1027,7 hPa 0,0 l/m 2,6 km/h (1 Bft) N-NO 0,00 h 0,025 mm 0 W/m 5,7 C 8,6 C 3,8 km/h (1 Bft)
15/01/2007 23:00 8,4 C 82 % 1027,6 hPa 0,0 l/m 3,7 km/h (1 Bft) N-NO 0,00 h 0,025 mm 0 W/m 5,5 C 8,3 C 5,4 km/h (1 Bft)
16/01/2007 00:00 8,8 C 79 % 1027,4 hPa 0,0 l/m 3,4 km/h (1 Bft) N-NO 0,00 h 0,025 mm 0 W/m 5,3 C 8,7 C 5,2 km/h (1 Bft)
16/01/2007 01:00 8,4 C 79 % 1027,0 hPa 0,0 l/m 2,5 km/h (1 Bft) N-NO 0,00 h 0,025 mm 0 W/m 5,0 C 8,4 C 4,5 km/h (1 Bft)
16/01/2007 02:00 8,1 C 81 % 1027,0 hPa 0,0 l/m 1,7 km/h (1 Bft) N 0,00 h 0,025 mm 0 W/m 4,9 C 8,1 C 3,8 km/h (1 Bft)
16/01/2007 03:00 8,9 C 78 % 1026,9 hPa 0,0 l/m 4,0 km/h (1 Bft) N-NO 0,00 h 0,025 mm 0 W/m 5,2 C 8,7 C 6,0 km/h (2 Bft)
16/01/2007 04:00 8,6 C 79 % 1026,5 hPa 0,0 l/m 3,9 km/h (1 Bft) N-NO 0,00 h 0,025 mm 0 W/m 5,2 C 8,5 C 5,9 km/h (2 Bft)
16/01/2007 05:00 8,6 C 79 % 1026,4 hPa 0,0 l/m 3,5 km/h (1 Bft) N-NO 0,00 h 0,025 mm 0 W/m 5,1 C 8,4 C 5,6 km/h (1 Bft)
16/01/2007 06:00 7,8 C 81 % 1026,5 hPa 0,0 l/m 0,5 km/h (0 Bft) N 0,00 h 0,025 mm 0 W/m 4,9 C 7,8 C 1,6 km/h (1 Bft)
16/01/2007 07:00 8,0 C 80 % 1026,6 hPa 0,0 l/m 0,7 km/h (0 Bft) N 0,00 h 0,025 mm 0 W/m 4,7 C 8,0 C 2,1 km/h (1 Bft)
16/01/2007 08:00 8,4 C 77 % 1026,6 hPa 0,0 l/m 0,3 km/h (0 Bft) N-NO 0,05 h 0,000 mm 30 W/m 4,5 C 8,4 C 1,0 km/h (0 Bft)
16/01/2007 09:00 9,6 C 75 % 1026,7 hPa 0,0 l/m 0,5 km/h (0 Bft) N-NO 0,00 h 0,025 mm 95 W/m 5,4 C 9,6 C 1,0 km/h (0 Bft)
16/01/2007 10:00 11,1 C 74 % 1027,0 hPa 0,0 l/m 0,3 km/h (0 Bft) N 0,20 h 0,051 mm 164 W/m 6,7 C 11,1 C 1,0 km/h (0 Bft)
16/01/2007 11:00 12,5 C 69 % 1027,2 hPa 0,0 l/m 1,0 km/h (0 Bft) S 0,97 h 0,076 mm 271 W/m 7,0 C 12,5 C 2,2 km/h (1 Bft)
16/01/2007 12:00 12,9 C 67 % 1026,6 hPa 0,0 l/m 2,3 km/h (1 Bft) E-SE 0,30 h 0,152 mm 202 W/m 6,8 C 12,9 C 4,1 km/h (1 Bft)
16/01/2007 13:00 12,7 C 68 % 1025,8 hPa 0,0 l/m 1,5 km/h (1 Bft) E-NE 0,00 h 0,127 mm 135 W/m 6,8 C 12,7 C 3,2 km/h (1 Bft)
16/01/2007 14:00 12,5 C 68 % 1025,3 hPa 0,0 l/m 0,1 km/h (0 Bft) E-NE 0,00 h 0,076 mm 84 W/m 6,8 C 12,5 C 0,5 km/h (0 Bft)
16/01/2007 15:00 12,0 C 73 % 1025,1 hPa 0,0 l/m 0,5 km/h (0 Bft) NE 0,00 h 0,051 mm 53 W/m 7,4 C 12,0 C 1,4 km/h (1 Bft)
16/01/2007 16:00 11,6 C 76 % 1024,9 hPa 0,0 l/m 0,2 km/h (0 Bft) NE 0,00 h 0,025 mm 18 W/m 7,5 C 11,6 C 0,6 km/h (0 Bft)
16/01/2007 17:00 11,3 C 80 % 1025,0 hPa 0,0 l/m 1,0 km/h (0 Bft) NO 0,00 h 0,025 mm 7 W/m 7,9 C 11,3 C 2,2 km/h (1 Bft)
16/01/2007 18:00 11,1 C 81 % 1025,3 hPa 0,0 l/m 0,6 km/h (0 Bft) N-NO 0,00 h 0,000 mm 0 W/m 8,0 C 11,1 C 1,8 km/h (1 Bft)
16/01/2007 19:00 11,0 C 82 % 1025,5 hPa 0,0 l/m 0,7 km/h (0 Bft) N-NO 0,00 h 0,025 mm 0 W/m 8,0 C 11,0 C 2,1 km/h (1 Bft)
16/01/2007 20:00 10,7 C 83 % 1025,4 hPa 0,0 l/m 1,5 km/h (1 Bft) N 0,00 h 0,025 mm 0 W/m 7,9 C 10,7 C 3,3 km/h (1 Bft)
16/01/2007 21:00 10,5 C 84 % 1025,3 hPa 0,0 l/m 0,9 km/h (0 Bft) NE 0,00 h 0,025 mm 0 W/m 7,8 C 10,5 C 1,8 km/h (1 Bft)
16/01/2007 22:00 10,4 C 85 % 1025,3 hPa 0,0 l/m 1,5 km/h (1 Bft) O-NO 0,00 h 0,025 mm 0 W/m 8,0 C 10,4 C 2,0 km/h (1 Bft)
16/01/2007 23:00 10,6 C 84 % 1025,5 hPa 0,4 l/m 4,7 km/h (1 Bft) O 0,00 h 0,025 mm 0 W/m 8,0 C 10,6 C 5,9 km/h (2 Bft)
17/01/2007 00:00 9,9 C 89 % 1025,0 hPa 0,6 l/m 5,0 km/h (1 Bft) N-NO 0,00 h 0,025 mm 0 W/m 8,2 C 9,5 C 7,7 km/h (2 Bft)
17/01/2007 01:00 9,4 C 92 % 1024,7 hPa 0,0 l/m 2,5 km/h (1 Bft) O-NO 0,00 h 0,025 mm 0 W/m 8,2 C 9,3 C 3,5 km/h (1 Bft)
17/01/2007 02:00 9,2 C 92 % 1024,7 hPa 0,0 l/m 2,3 km/h (1 Bft) NO 0,00 h 0,000 mm 0 W/m 7,9 C 9,0 C 3,4 km/h (1 Bft)
17/01/2007 03:00 9,1 C 91 % 1024,6 hPa 0,0 l/m 5,5 km/h (1 Bft) NO 0,00 h 0,000 mm 0 W/m 7,7 C 8,5 C 7,5 km/h (2 Bft)
17/01/2007 04:00 9,0 C 90 % 1024,2 hPa 0,0 l/m 3,6 km/h (1 Bft) O 0,00 h 0,025 mm 0 W/m 7,5 C 8,8 C 5,5 km/h (1 Bft)
17/01/2007 05:00 9,4 C 86 % 1024,2 hPa 0,0 l/m 5,8 km/h (2 Bft) O-NO 0,00 h 0,025 mm 0 W/m 7,1 C 8,7 C 7,6 km/h (2 Bft)
17/01/2007 06:00 8,7 C 84 % 1024,3 hPa 0,0 l/m 8,1 km/h (2 Bft) O-NO 0,00 h 0,025 mm 0 W/m 6,2 C 7,5 C 10,8 km/h (2 Bft)
17/01/2007 07:00 8,7 C 81 % 1024,8 hPa 0,0 l/m 6,9 km/h (2 Bft) O-NO 0,00 h 0,025 mm 0 W/m 5,6 C 7,8 C 8,6 km/h (2 Bft)
17/01/2007 08:00 7,8 C 84 % 1024,9 hPa 0,0 l/m 4,8 km/h (1 Bft) O-NO 0,00 h 0,025 mm 14 W/m 5,2 C 7,3 C 7,1 km/h (2 Bft)
17/01/2007 09:00 9,0 C 82 % 1025,1 hPa 0,0 l/m 3,0 km/h (1 Bft) NO 0,32 h 0,025 mm 103 W/m 6,0 C 8,8 C 4,9 km/h (1 Bft)
17/01/2007 10:00 12,3 C 74 % 1025,2 hPa 0,0 l/m 0,4 km/h (0 Bft) NO 1,00 h 0,051 mm 272 W/m 7,8 C 12,3 C 1,5 km/h (1 Bft)
17/01/2007 11:00 13,1 C 72 % 1025,3 hPa 0,0 l/m 2,3 km/h (1 Bft) SE 1,00 h 0,127 mm 349 W/m 8,2 C 13,1 C 4,4 km/h (1 Bft)
17/01/2007 12:00 13,6 C 75 % 1024,7 hPa 0,0 l/m 4,9 km/h (1 Bft) S 0,97 h 0,178 mm 370 W/m 9,3 C 13,6 C 8,1 km/h (2 Bft)
17/01/2007 13:00 13,3 C 78 % 1024,1 hPa 0,0 l/m 5,9 km/h (2 Bft) S-SE 0,65 h 0,203 mm 279 W/m 9,5 C 13,3 C 9,2 km/h (2 Bft)
17/01/2007 14:00 13,1 C 82 % 1023,7 hPa 0,0 l/m 2,6 km/h (1 Bft) S-SE 0,23 h 0,152 mm 188 W/m 10,1 C 13,1 C 5,0 km/h (1 Bft)
17/01/2007 15:00 12,9 C 85 % 1023,9 hPa 0,0 l/m 4,6 km/h (1 Bft) S-SE 0,57 h 0,102 mm 151 W/m 10,4 C 12,9 C 7,0 km/h (2 Bft)
17/01/2007 16:00 12,9 C 87 % 1023,8 hPa 0,0 l/m 0,9 km/h (0 Bft) SE 0,42 h 0,076 mm 68 W/m 10,7 C 12,9 C 2,1 km/h (1 Bft)
17/01/2007 17:00 11,8 C 90 % 1024,0 hPa 0,0 l/m 0,6 km/h (0 Bft) SE 0,15 h 0,025 mm 12 W/m 10,2 C 11,8 C 1,6 km/h (1 Bft)
17/01/2007 18:00 10,3 C 93 % 1024,3 hPa 0,0 l/m 0,5 km/h (0 Bft) N-NE 0,00 h 0,000 mm 0 W/m 9,2 C 10,3 C 2,4 km/h (1 Bft)
17/01/2007 19:00 9,8 C 94 % 1024,5 hPa 0,0 l/m 3,2 km/h (1 Bft) N-NO 0,00 h 0,000 mm 0 W/m 8,9 C 9,8 C 5,6 km/h (1 Bft)
17/01/2007 20:00 9,5 C 94 % 1024,9 hPa 0,0 l/m 3,1 km/h (1 Bft) NO 0,00 h 0,000 mm 0 W/m 8,5 C 9,4 C 5,2 km/h (1 Bft)
17/01/2007 21:00 9,2 C 93 % 1024,8 hPa 0,0 l/m 6,1 km/h (2 Bft) O-NO 0,00 h 0,000 mm 0 W/m 8,1 C 8,5 C 8,3 km/h (2 Bft)
17/01/2007 22:00 8,7 C 91 % 1024,5 hPa 0,0 l/m 8,1 km/h (2 Bft) O-NO 0,00 h 0,025 mm 0 W/m 7,3 C 7,5 C 10,7 km/h (2 Bft)
17/01/2007 23:00 8,6 C 87 % 1024,5 hPa 0,0 l/m 6,9 km/h (2 Bft) O-NO 0,00 h 0,025 mm 0 W/m 6,6 C 7,7 C 9,1 km/h (2 Bft)
18/01/2007 00:00 8,0 C 86 % 1024,2 hPa 0,0 l/m 3,2 km/h (1 Bft) NO 0,00 h 0,025 mm 0 W/m 5,9 C 7,7 C 4,6 km/h (1 Bft)
18/01/2007 01:00 8,6 C 86 % 1024,1 hPa 0,0 l/m 2,8 km/h (1 Bft) NO 0,00 h 0,025 mm 0 W/m 6,4 C 8,5 C 4,0 km/h (1 Bft)
18/01/2007 02:00 7,9 C 87 % 1023,8 hPa 0,2 l/m 6,1 km/h (2 Bft) O-NO 0,00 h 0,025 mm 0 W/m 5,8 C 7,0 C 8,0 km/h (2 Bft)
18/01/2007 03:00 7,7 C 83 % 1023,5 hPa 0,0 l/m 5,0 km/h (1 Bft) O-NO 0,00 h 0,025 mm 0 W/m 5,0 C 7,1 C 7,3 km/h (2 Bft)
18/01/2007 04:00 7,7 C 82 % 1023,2 hPa 0,0 l/m 1,5 km/h (1 Bft) NO 0,00 h 0,025 mm 0 W/m 4,8 C 7,7 C 2,6 km/h (1 Bft)
18/01/2007 05:00 7,7 C 85 % 1023,0 hPa 0,0 l/m 1,3 km/h (1 Bft) NO 0,00 h 0,025 mm 0 W/m 5,4 C 7,7 C 2,6 km/h (1 Bft)
18/01/2007 06:00 7,7 C 86 % 1023,0 hPa 0,0 l/m 3,0 km/h (1 Bft) O-NO 0,00 h 0,025 mm 0 W/m 5,6 C 7,4 C 5,0 km/h (1 Bft)
18/01/2007 07:00 7,7 C 87 % 1023,3 hPa 0,0 l/m 1,6 km/h (1 Bft) NO 0,00 h 0,025 mm 5 W/m 5,6 C 7,6 C 2,8 km/h (1 Bft)
18/01/2007 08:00 8,4 C 83 % 1023,0 hPa 0,0 l/m 1,8 km/h (1 Bft) O-NO 0,80 h 0,000 mm 51 W/m 5,7 C 8,3 C 2,9 km/h (1 Bft)
18/01/2007 09:00 10,4 C 78 % 1022,9 hPa 0,0 l/m 2,0 km/h (1 Bft) S 1,00 h 0,025 mm 171 W/m 6,7 C 10,3 C 3,5 km/h (1 Bft)
18/01/2007 10:00 11,0 C 78 % 1023,5 hPa 0,0 l/m 2,9 km/h (1 Bft) SO 0,18 h 0,076 mm 157 W/m 7,3 C 11,0 C 5,0 km/h (1 Bft)
18/01/2007 11:00 11,1 C 79 % 1023,2 hPa 0,0 l/m 0,9 km/h (0 Bft) S-SE 0,12 h 0,076 mm 151 W/m 7,6 C 11,1 C 2,1 km/h (1 Bft)
18/01/2007 12:00 13,6 C 71 % 1022,2 hPa 0,0 l/m 5,7 km/h (1 Bft) SO 0,98 h 0,076 mm 324 W/m 8,4 C 13,6 C 8,8 km/h (2 Bft)
18/01/2007 13:00 15,8 C 62 % 1021,1 hPa 0,0 l/m 11,5 km/h (2 Bft) S-SO 0,95 h 0,178 mm 288 W/m 8,5 C 15,8 C 15,0 km/h (3 Bft)
18/01/2007 14:00 16,7 C 57 % 1020,3 hPa 0,0 l/m 14,2 km/h (3 Bft) O-SO 0,00 h 0,203 mm 141 W/m 8,1 C 16,7 C 19,4 km/h (3 Bft)
18/01/2007 15:00 17,8 C 48 % 1019,7 hPa 0,0 l/m 22,4 km/h (4 Bft) O-SO 0,80 h 0,178 mm 174 W/m 6,7 C 17,8 C 30,6 km/h (5 Bft)
18/01/2007 16:00 16,6 C 52 % 1019,5 hPa 0,0 l/m 29,8 km/h (5 Bft) O-SO 0,12 h 0,254 mm 65 W/m 6,6 C 16,6 C 40,3 km/h (6 Bft)
18/01/2007 17:00 15,7 C 53 % 1018,4 hPa 0,0 l/m 43,7 km/h (6 Bft) SO 0,00 h 0,229 mm 11 W/m 6,1 C 15,7 C 54,8 km/h (7 Bft)
18/01/2007 18:00 14,4 C 59 % 1018,1 hPa 0,0 l/m 38,9 km/h (6 Bft) SO 0,00 h 6,325 mm 0 W/m 6,4 C 14,4 C 49,7 km/h (6 Bft)
18/01/2007 19:00 13,9 C 60 % 1018,2 hPa 0,0 l/m 39,3 km/h (6 Bft) SO 0,00 h 6,401 mm 0 W/m 6,3 C 13,9 C 49,0 km/h (6 Bft)
18/01/2007 20:00 14,0 C 60 % 1017,4 hPa 0,0 l/m 43,8 km/h (6 Bft) SO 0,00 h 6,401 mm 0 W/m 6,4 C 14,0 C 53,9 km/h (7 Bft)
18/01/2007 21:00 14,3 C 59 % 1016,0 hPa 0,0 l/m 45,8 km/h (6 Bft) SO 0,00 h 6,426 mm 0 W/m 6,4 C 14,3 C 56,6 km/h (7 Bft)
18/01/2007 22:00 14,1 C 61 % 1014,9 hPa 0,0 l/m 47,1 km/h (6 Bft) SO 0,00 h 6,426 mm 0 W/m 6,6 C 14,1 C 59,5 km/h (7 Bft)
18/01/2007 23:00 14,2 C 61 % 1014,5 hPa 0,0 l/m 38,7 km/h (5 Bft) SO 0,00 h 6,426 mm 0 W/m 6,8 C 14,2 C 50,3 km/h (7 Bft)
19/01/2007 00:00 14,1 C 63 % 1014,1 hPa 0,0 l/m 39,1 km/h (6 Bft) O-SO 0,00 h 6,401 mm 0 W/m 7,2 C 14,1 C 50,6 km/h (7 Bft)
19/01/2007 01:00 14,5 C 63 % 1012,6 hPa 0,0 l/m 39,4 km/h (6 Bft) O-SO 0,00 h 6,401 mm 0 W/m 7,5 C 14,5 C 54,2 km/h (7 Bft)
19/01/2007 02:00 14,7 C 62 % 1013,4 hPa 0,0 l/m 14,5 km/h (3 Bft) O-NO 0,00 h 6,401 mm 0 W/m 7,5 C 14,7 C 23,3 km/h (4 Bft)
19/01/2007 03:00 12,9 C 62 % 1013,8 hPa 0,0 l/m 5,7 km/h (1 Bft) N 0,00 h 0,076 mm 0 W/m 5,9 C 12,9 C 9,2 km/h (2 Bft)
19/01/2007 04:00 11,2 C 73 % 1014,1 hPa 0,0 l/m 3,6 km/h (1 Bft) N-NE 0,00 h 0,051 mm 0 W/m 6,6 C 11,2 C 5,6 km/h (1 Bft)
19/01/2007 05:00 10,9 C 74 % 1014,2 hPa 0,0 l/m 3,2 km/h (1 Bft) N-NE 0,00 h 0,025 mm 0 W/m 6,4 C 10,9 C 4,9 km/h (1 Bft)
19/01/2007 06:00 10,4 C 78 % 1014,4 hPa 0,0 l/m 2,3 km/h (1 Bft) N-NE 0,00 h 0,025 mm 0 W/m 6,8 C 10,4 C 4,1 km/h (1 Bft)
19/01/2007 07:00 10,4 C 83 % 1014,7 hPa 0,0 l/m 2,3 km/h (1 Bft) NE 0,00 h 0,025 mm 0 W/m 7,6 C 10,4 C 4,0 km/h (1 Bft)
19/01/2007 08:00 10,5 C 82 % 1015,5 hPa 0,0 l/m 2,4 km/h (1 Bft) N-NE 0,20 h 0,000 mm 35 W/m 7,6 C 10,5 C 4,3 km/h (1 Bft)
19/01/2007 09:00 12,6 C 81 % 1016,3 hPa 0,0 l/m 0,7 km/h (0 Bft) N-NE 1,00 h 0,025 mm 182 W/m 9,4 C 12,6 C 2,5 km/h (1 Bft)
19/01/2007 10:00 14,4 C 78 % 1016,9 hPa 0,0 l/m 1,2 km/h (1 Bft) N-NE 1,00 h 0,102 mm 289 W/m 10,6 C 14,4 C 3,2 km/h (1 Bft)
19/01/2007 11:00 16,0 C 72 % 1016,8 hPa 0,0 l/m 3,3 km/h (1 Bft) E-NE 1,00 h 0,152 mm 392 W/m 11,0 C 16,0 C 5,6 km/h (1 Bft)
19/01/2007 12:00 16,5 C 71 % 1016,6 hPa 0,0 l/m 4,4 km/h (1 Bft) E 1,00 h 0,229 mm 388 W/m 11,2 C 16,5 C 7,9 km/h (2 Bft)
19/01/2007 13:00 16,7 C 71 % 1016,7 hPa 0,0 l/m 5,7 km/h (1 Bft) E 1,00 h 0,229 mm 413 W/m 11,5 C 16,7 C 8,7 km/h (2 Bft)
19/01/2007 14:00 16,1 C 77 % 1016,6 hPa 0,0 l/m 3,7 km/h (1 Bft) E 0,93 h 0,254 mm 318 W/m 12,0 C 16,1 C 6,5 km/h (2 Bft)
19/01/2007 15:00 15,5 C 76 % 1016,6 hPa 0,0 l/m 2,7 km/h (1 Bft) E 0,85 h 0,178 mm 191 W/m 11,2 C 15,5 C 4,6 km/h (1 Bft)
19/01/2007 16:00 14,2 C 81 % 1017,3 hPa 0,0 l/m 2,6 km/h (1 Bft) SE 0,13 h 0,102 mm 59 W/m 10,9 C 14,2 C 3,9 km/h (1 Bft)
19/01/2007 17:00 12,7 C 87 % 1017,8 hPa 0,0 l/m 0,5 km/h (0 Bft) SE 0,12 h 0,051 mm 12 W/m 10,6 C 12,7 C 1,1 km/h (1 Bft)
19/01/2007 18:00 12,0 C 90 % 1018,7 hPa 0,0 l/m 1,8 km/h (1 Bft) O-NO 0,00 h 0,000 mm 0 W/m 10,5 C 12,0 C 2,8 km/h (1 Bft)
19/01/2007 19:00 11,9 C 91 % 1019,3 hPa 0,0 l/m 1,3 km/h (1 Bft) O-NO 0,00 h 0,025 mm 0 W/m 10,5 C 11,9 C 2,4 km/h (1 Bft)
19/01/2007 20:00 11,3 C 92 % 1019,7 hPa 0,0 l/m 0,9 km/h (0 Bft) NO 0,00 h 0,000 mm 0 W/m 10,1 C 11,3 C 1,7 km/h (1 Bft)
19/01/2007 21:00 11,1 C 92 % 1020,0 hPa 0,0 l/m 3,8 km/h (1 Bft) O-NO 0,00 h 0,000 mm 0 W/m 9,9 C 11,1 C 5,3 km/h (1 Bft)
19/01/2007 22:00 11,1 C 93 % 1020,4 hPa 0,0 l/m 5,7 km/h (1 Bft) O-NO 0,00 h 0,025 mm 0 W/m 9,9 C 11,1 C 8,3 km/h (2 Bft)
19/01/2007 23:00 10,9 C 92 % 1020,4 hPa 0,0 l/m 4,8 km/h (1 Bft) O-NO 0,00 h 0,025 mm 0 W/m 9,7 C 10,9 C 7,6 km/h (2 Bft)
20/01/2007 00:00 11,1 C 91 % 1020,7 hPa 0,0 l/m 6,3 km/h (2 Bft) O-NO 0,00 h 0,025 mm 0 W/m 9,7 C 11,1 C 8,4 km/h (2 Bft)
20/01/2007 01:00 11,8 C 87 % 1020,2 hPa 0,0 l/m 5,4 km/h (1 Bft) O-NO 0,00 h 0,025 mm 0 W/m 9,8 C 11,8 C 7,0 km/h (2 Bft)
20/01/2007 02:00 12,2 C 83 % 1020,0 hPa 0,0 l/m 3,6 km/h (1 Bft) O-NO 0,00 h 0,025 mm 0 W/m 9,3 C 12,2 C 4,6 km/h (1 Bft)
20/01/2007 03:00 11,8 C 82 % 1020,1 hPa 0,0 l/m 2,4 km/h (1 Bft) O-NO 0,00 h 0,025 mm 0 W/m 8,9 C 11,8 C 3,6 km/h (1 Bft)
20/01/2007 04:00 11,4 C 83 % 1020,0 hPa 0,0 l/m 1,9 km/h (1 Bft) NO 0,00 h 0,025 mm 0 W/m 8,7 C 11,4 C 2,7 km/h (1 Bft)
20/01/2007 05:00 11,2 C 78 % 1020,4 hPa 0,0 l/m 0,4 km/h (0 Bft) NO 0,00 h 0,025 mm 0 W/m 7,5 C 11,2 C 1,1 km/h (1 Bft)
20/01/2007 06:00 11,1 C 82 % 1020,7 hPa 0,2 l/m 0,3 km/h (0 Bft) N-NE 0,00 h 0,025 mm 0 W/m 8,2 C 11,1 C 1,1 km/h (1 Bft)
20/01/2007 07:00 10,8 C 87 % 1021,0 hPa 0,0 l/m 1,1 km/h (0 Bft) N 0,00 h 0,025 mm 5 W/m 8,8 C 10,8 C 2,7 km/h (1 Bft)
20/01/2007 08:00 11,0 C 90 % 1021,2 hPa 0,0 l/m 1,4 km/h (1 Bft) N-NO 0,40 h 0,000 mm 31 W/m 9,5 C 11,0 C 3,1 km/h (1 Bft)
20/01/2007 09:00 11,8 C 91 % 1021,2 hPa 0,0 l/m 1,2 km/h (1 Bft) O-NO 0,00 h 0,025 mm 79 W/m 10,3 C 11,8 C 2,7 km/h (1 Bft)
20/01/2007 10:00 12,9 C 88 % 1021,5 hPa 0,0 l/m 0,1 km/h (0 Bft) O-NO 0,10 h 0,051 mm 136 W/m 11,0 C 12,9 C 0,9 km/h (0 Bft)
20/01/2007 11:00 13,6 C 88 % 1021,6 hPa 0,0 l/m 0,5 km/h (0 Bft) E-SE 0,00 h 0,076 mm 130 W/m 11,7 C 13,6 C 1,5 km/h (1 Bft)
20/01/2007 12:00 13,3 C 89 % 1021,1 hPa 0,0 l/m 0,9 km/h (0 Bft) S 0,00 h 0,076 mm 94 W/m 11,5 C 13,3 C 2,6 km/h (1 Bft)
20/01/2007 13:00 13,5 C 89 % 1020,6 hPa 0,0 l/m 2,7 km/h (1 Bft) S 0,00 h 0,051 mm 88 W/m 11,7 C 13,5 C 4,6 km/h (1 Bft)
20/01/2007 14:00 13,3 C 88 % 1020,0 hPa 0,0 l/m 5,2 km/h (1 Bft) S-SO 0,00 h 0,051 mm 78 W/m 11,3 C 13,3 C 7,1 km/h (2 Bft)
20/01/2007 15:00 13,7 C 83 % 1019,3 hPa 0,0 l/m 0,3 km/h (0 Bft) S-SO 0,00 h 0,051 mm 51 W/m 10,8 C 13,7 C 0,7 km/h (0 Bft)
20/01/2007 16:00 13,5 C 86 % 1019,1 hPa 0,0 l/m 0,6 km/h (0 Bft) E-SE 0,00 h 0,025 mm 22 W/m 11,3 C 13,5 C 1,5 km/h (1 Bft)
20/01/2007 17:00 12,9 C 88 % 1019,0 hPa 0,0 l/m 1,2 km/h (1 Bft) S-SE 0,00 h 0,025 mm 6 W/m 10,9 C 12,9 C 2,1 km/h (1 Bft)
20/01/2007 18:00 12,5 C 89 % 1019,3 hPa 0,0 l/m 0,0 km/h (0 Bft) N 0,00 h 0,000 mm 0 W/m 10,8 C 12,5 C 0,0 km/h (0 Bft)
20/01/2007 19:00 12,1 C 90 % 1019,5 hPa 0,0 l/m 0,0 km/h (0 Bft) N 0,00 h 0,000 mm 0 W/m 10,6 C 12,1 C 0,0 km/h (0 Bft)
20/01/2007 20:00 11,8 C 92 % 1019,5 hPa 0,0 l/m 0,6 km/h (0 Bft) NE 0,00 h 0,000 mm 0 W/m 10,5 C 11,8 C 1,3 km/h (1 Bft)
20/01/2007 21:00 11,7 C 93 % 1019,7 hPa 0,0 l/m 3,5 km/h (1 Bft) O 0,00 h 0,000 mm 0 W/m 10,6 C 11,7 C 5,0 km/h (1 Bft)
20/01/2007 22:00 11,3 C 94 % 1019,4 hPa 0,0 l/m 5,7 km/h (1 Bft) O 0,00 h 0,025 mm 0 W/m 10,3 C 11,3 C 7,5 km/h (2 Bft)
20/01/2007 23:00 10,4 C 95 % 1019,0 hPa 0,0 l/m 3,8 km/h (1 Bft) O-NO 0,00 h 0,025 mm 0 W/m 9,6 C 10,4 C 6,2 km/h (2 Bft)
21/01/2007 00:00 9,9 C 95 % 1018,7 hPa 0,0 l/m 1,8 km/h (1 Bft) N-NO 0,00 h 0,000 mm 0 W/m 9,0 C 9,9 C 3,5 km/h (1 Bft)
21/01/2007 01:00 9,6 C 94 % 1018,3 hPa 0,0 l/m 1,1 km/h (1 Bft) NO 0,00 h 0,000 mm 0 W/m 8,7 C 9,6 C 2,3 km/h (1 Bft)
21/01/2007 02:00 9,2 C 94 % 1018,0 hPa 0,0 l/m 0,2 km/h (0 Bft) NO 0,00 h 0,000 mm 0 W/m 8,2 C 9,2 C 1,0 km/h (0 Bft)
21/01/2007 03:00 8,7 C 94 % 1017,6 hPa 0,0 l/m 3,4 km/h (1 Bft) NO 0,00 h 0,000 mm 0 W/m 7,8 C 8,6 C 4,7 km/h (1 Bft)
21/01/2007 04:00 8,7 C 94 % 1017,1 hPa 0,0 l/m 3,2 km/h (1 Bft) O 0,00 h 0,000 mm 0 W/m 7,8 C 8,6 C 5,0 km/h (1 Bft)
21/01/2007 05:00 8,5 C 94 % 1016,7 hPa 0,0 l/m 1,5 km/h (1 Bft) N-NO 0,00 h 0,000 mm 0 W/m 7,5 C 8,5 C 2,5 km/h (1 Bft)
21/01/2007 06:00 8,6 C 94 % 1016,4 hPa 0,0 l/m 2,2 km/h (1 Bft) NO 0,00 h 0,000 mm 0 W/m 7,6 C 8,5 C 4,1 km/h (1 Bft)
21/01/2007 07:00 8,3 C 94 % 1016,2 hPa 0,0 l/m 2,5 km/h (1 Bft) NO 0,00 h 0,000 mm 6 W/m 7,4 C 8,3 C 4,3 km/h (1 Bft)
21/01/2007 08:00 8,4 C 94 % 1016,1 hPa 0,2 l/m 1,9 km/h (1 Bft) NO 0,18 h 0,000 mm 36 W/m 7,5 C 8,4 C 3,6 km/h (1 Bft)
21/01/2007 09:00 9,1 C 94 % 1015,9 hPa 0,0 l/m 0,1 km/h (0 Bft) NO 0,00 h 0,025 mm 87 W/m 8,1 C 9,1 C 0,2 km/h (0 Bft)
21/01/2007 10:00 10,2 C 91 % 1015,7 hPa 0,0 l/m 0,0 km/h (0 Bft) N 0,00 h 0,051 mm 136 W/m 8,8 C 10,2 C 0,0 km/h (0 Bft)
21/01/2007 11:00 11,4 C 84 % 1015,8 hPa 0,0 l/m 1,6 km/h (1 Bft) N-NE 0,00 h 0,076 mm 169 W/m 8,8 C 11,4 C 3,1 km/h (1 Bft)
21/01/2007 12:00 12,1 C 86 % 1015,4 hPa 0,0 l/m 0,9 km/h (0 Bft) N-NE 0,08 h 0,076 mm 204 W/m 9,9 C 12,1 C 2,5 km/h (1 Bft)
21/01/2007 13:00 12,8 C 85 % 1014,7 hPa 0,0 l/m 2,6 km/h (1 Bft) NE 0,53 h 0,102 mm 294 W/m 10,4 C 12,8 C 4,4 km/h (1 Bft)
21/01/2007 14:00 13,4 C 81 % 1014,1 hPa 0,0 l/m 3,5 km/h (1 Bft) E-NE 0,10 h 0,152 mm 164 W/m 10,2 C 13,4 C 5,9 km/h (2 Bft)
21/01/2007 15:00 12,4 C 87 % 1014,0 hPa 0,0 l/m 3,4 km/h (1 Bft) E 0,00 h 0,102 mm 96 W/m 10,3 C 12,4 C 5,5 km/h (1 Bft)
21/01/2007 16:00 11,8 C 89 % 1014,0 hPa 0,0 l/m 0,2 km/h (0 Bft) E 0,00 h 0,051 mm 53 W/m 10,1 C 11,8 C 0,3 km/h (0 Bft)
21/01/2007 17:00 11,0 C 91 % 1014,1 hPa 0,0 l/m 0,3 km/h (0 Bft) NE 0,00 h 0,025 mm 13 W/m 9,5 C 11,0 C 1,3 km/h (1 Bft)
21/01/2007 18:00 10,7 C 91 % 1014,3 hPa 0,0 l/m 0,2 km/h (0 Bft) N-NE 0,00 h 0,000 mm 0 W/m 9,3 C 10,7 C 0,8 km/h (0 Bft)
21/01/2007 19:00 10,4 C 91 % 1014,6 hPa 0,0 l/m 1,4 km/h (1 Bft) NO 0,00 h 0,000 mm 0 W/m 9,0 C 10,4 C 3,6 km/h (1 Bft)
21/01/2007 20:00 10,3 C 92 % 1014,6 hPa 0,0 l/m 0,7 km/h (0 Bft) NO 0,00 h 0,000 mm 0 W/m 9,0 C 10,3 C 2,3 km/h (1 Bft)
21/01/2007 21:00 10,3 C 92 % 1014,6 hPa 0,0 l/m 1,5 km/h (1 Bft) NO 0,00 h 0,000 mm 0 W/m 9,1 C 10,3 C 3,3 km/h (1 Bft)
21/01/2007 22:00 10,5 C 92 % 1014,6 hPa 0,0 l/m 0,4 km/h (0 Bft) NO 0,00 h 0,000 mm 0 W/m 9,3 C 10,5 C 1,3 km/h (1 Bft)
21/01/2007 23:00 10,6 C 92 % 1014,4 hPa 0,0 l/m 0,9 km/h (0 Bft) NO 0,00 h 0,000 mm 0 W/m 9,4 C 10,6 C 1,9 km/h (1 Bft)
Min-Date _ 18/01/07 18/01/07 19/01/07 - 15/01/07 - - - - 16/01/07 18/01/07 15/01/07
_ Min-Heure 07:24 15:20 01:45 - 00:00 - - - - 08:14 02:48 00:01
Minimum _ 7,2 C 47 % 1012,3 hPa - 0,0 km/h (0 Bft) - - - - 4,3 C 5,8 C 0,0 km/h (0 Bft)
Max-Date _ 18/01/07 17/01/07 15/01/07 17/01/07 18/01/07 - 15/01/07 18/01/07 21/01/07 19/01/07 18/01/07 18/01/07
_ Max-Heure 15:24 01:53 10:30 00:00 22:16 - 11:37 21:00 13:50 13:56 15:24 17:39
Maximum _ 18,3 C 96 % 1029,8 hPa 0,6 l/m 59,5 km/h
SO (7 Bft)
- 0,02 h 6,426 mm 533 W/m 12,5 C 18,3 C 69,2 km/h
SO (8 Bft)
Moyenne _ 11,3 C 81 % 1021,7 hPa #1,6 l/m 5,0 km/h (1 Bft) O-NO #23:28 h #65,328 mm 138 W/m 8,1 C 11,2 C 7,3 km/h (2 Bft)
Roquefort les pins